<?xml version="1.0" encoding="UTF-8" standalone="no" ?>
<gpx xmlns="http://www.topografix.com/GPX/1/1" xmlns:xsi="http://www.w3.org/2001/XMLSchema-instance" xsi:schemaLocation="http://www.topografix.com/GPX/1/1 http://www.topografix.com/GPX/1/1/gpx.xsd" version="1.1" creator="VisuGPX - https://www.visugpx.com">
  <metadata>
    <name>Arèches Boudin 26 Janvier</name>
    <desc><![CDATA[Très belle journée, soleil et ciel bleu.
Vue magnifique, neige extra !
Garmin
Grenam13]]></desc>
  </metadata>
  <trk>
    <name><![CDATA[ACTIVE LOG094559]]></name>
    <trkseg>
      <trkpt lat="45.68711" lon="6.57667">
        <ele>1340.488</ele>
        <time>2012-01-26T08:45:59Z</time>
      </trkpt>
      <trkpt lat="45.68707" lon="6.57664">
        <ele>1339.939</ele>
        <time>2012-01-26T08:46:09Z</time>
      </trkpt>
      <trkpt lat="45.68707" lon="6.57664">
        <ele>1340.372</ele>
        <time>2012-01-26T08:46:19Z</time>
      </trkpt>
      <trkpt lat="45.68707" lon="6.57663">
        <ele>1340.2</ele>
        <time>2012-01-26T08:46:29Z</time>
      </trkpt>
      <trkpt lat="45.68707" lon="6.57663">
        <ele>1340.412</ele>
        <time>2012-01-26T08:46:39Z</time>
      </trkpt>
      <trkpt lat="45.68707" lon="6.57663">
        <ele>1340.409</ele>
        <time>2012-01-26T08:46:49Z</time>
      </trkpt>
      <trkpt lat="45.68707" lon="6.57663">
        <ele>1340.295</ele>
        <time>2012-01-26T08:46:59Z</time>
      </trkpt>
      <trkpt lat="45.68707" lon="6.57663">
        <ele>1340.353</ele>
        <time>2012-01-26T08:47:09Z</time>
      </trkpt>
      <trkpt lat="45.68707" lon="6.57663">
        <ele>1339.987</ele>
        <time>2012-01-26T08:47:19Z</time>
      </trkpt>
      <trkpt lat="45.68707" lon="6.57663">
        <ele>1339.859</ele>
        <time>2012-01-26T08:47:29Z</time>
      </trkpt>
      <trkpt lat="45.68707" lon="6.57663">
        <ele>1340.398</ele>
        <time>2012-01-26T08:47:39Z</time>
      </trkpt>
      <trkpt lat="45.68707" lon="6.57663">
        <ele>1340.635</ele>
        <time>2012-01-26T08:47:49Z</time>
      </trkpt>
      <trkpt lat="45.68707" lon="6.57663">
        <ele>1340.838</ele>
        <time>2012-01-26T08:47:59Z</time>
      </trkpt>
      <trkpt lat="45.68707" lon="6.57663">
        <ele>1340.287</ele>
        <time>2012-01-26T08:48:09Z</time>
      </trkpt>
      <trkpt lat="45.68708" lon="6.57663">
        <ele>1340.052</ele>
        <time>2012-01-26T08:48:19Z</time>
      </trkpt>
      <trkpt lat="45.68708" lon="6.57663">
        <ele>1340.79</ele>
        <time>2012-01-26T08:48:29Z</time>
      </trkpt>
      <trkpt lat="45.68708" lon="6.57663">
        <ele>1339.882</ele>
        <time>2012-01-26T08:48:39Z</time>
      </trkpt>
      <trkpt lat="45.68708" lon="6.57663">
        <ele>1340.302</ele>
        <time>2012-01-26T08:48:49Z</time>
      </trkpt>
      <trkpt lat="45.68708" lon="6.57663">
        <ele>1340.378</ele>
        <time>2012-01-26T08:48:59Z</time>
      </trkpt>
      <trkpt lat="45.68708" lon="6.57663">
        <ele>1339.286</ele>
        <time>2012-01-26T08:49:09Z</time>
      </trkpt>
      <trkpt lat="45.68708" lon="6.57663">
        <ele>1340.936</ele>
        <time>2012-01-26T08:49:19Z</time>
      </trkpt>
      <trkpt lat="45.68708" lon="6.57663">
        <ele>1340.812</ele>
        <time>2012-01-26T08:49:29Z</time>
      </trkpt>
      <trkpt lat="45.68706" lon="6.57665">
        <ele>1340.555</ele>
        <time>2012-01-26T08:49:39Z</time>
      </trkpt>
      <trkpt lat="45.68701" lon="6.57666">
        <ele>1341.075</ele>
        <time>2012-01-26T08:49:49Z</time>
      </trkpt>
      <trkpt lat="45.68699" lon="6.57666">
        <ele>1341.072</ele>
        <time>2012-01-26T08:49:58Z</time>
      </trkpt>
      <trkpt lat="45.68699" lon="6.57666">
        <ele>1341.072</ele>
        <time>2012-01-26T08:49:59Z</time>
      </trkpt>
      <trkpt lat="45.68696" lon="6.5767">
        <ele>1341.583</ele>
        <time>2012-01-26T08:50:09Z</time>
      </trkpt>
    </trkseg>
  </trk>
</gpx>